createdAt,value
2023-02-20T00:01:40.302Z,1.17
2023-02-20T00:04:08.189Z,1.40
2023-02-20T00:06:35.692Z,1.30
2023-02-20T00:09:03.236Z,0.80
2023-02-20T00:11:31.018Z,1.23
2023-02-20T00:13:58.638Z,1.42
2023-02-20T00:16:26.175Z,1.10
2023-02-20T00:18:54.039Z,1.25
2023-02-20T00:21:21.715Z,1.33
2023-02-20T00:23:49.206Z,1.02
2023-02-20T00:26:17.100Z,1.33
2023-02-20T00:28:45.001Z,1.42
2023-02-20T00:31:15.694Z,1.10
2023-02-20T00:33:43.595Z,1.10
2023-02-20T00:36:18.933Z,1.37
2023-02-20T00:38:47.418Z,1.20
2023-02-20T00:41:15.628Z,1.00
2023-02-20T00:43:43.392Z,1.20
2023-02-20T00:46:13.319Z,1.17
2023-02-20T00:48:41.153Z,1.42
2023-02-20T00:51:23.566Z,1.37
2023-02-20T00:53:51.357Z,1.30
2023-02-20T00:56:19.073Z,1.35
2023-02-20T00:58:46.761Z,1.17
2023-02-20T01:01:16.584Z,1.60
2023-02-20T01:03:44.632Z,1.60
2023-02-20T01:06:12.761Z,1.77
2023-02-20T01:08:40.799Z,2.37
2023-02-20T01:11:08.508Z,2.17
2023-02-20T01:13:36.776Z,2.20
2023-02-20T01:16:07.486Z,2.05
2023-02-20T01:18:35.153Z,2.05
2023-02-20T01:21:03.344Z,2.35
2023-02-20T01:23:31.218Z,2.00
2023-02-20T01:25:58.737Z,2.08
2023-02-20T01:28:26.247Z,2.53
2023-02-20T01:30:54.116Z,2.37
2023-02-20T01:33:21.749Z,2.37
2023-02-20T01:35:49.184Z,2.20
2023-02-20T01:38:17.463Z,2.10
2023-02-20T01:40:49.320Z,2.22
2023-02-20T01:43:17.341Z,2.10
2023-02-20T01:45:45.950Z,2.40
2023-02-20T01:48:22.308Z,2.20
2023-02-20T01:50:59.126Z,2.45
2023-02-20T01:53:28.923Z,2.22
2023-02-20T01:56:00.804Z,2.30
2023-02-20T01:58:36.512Z,1.73
2023-02-20T02:01:05.300Z,1.77
2023-02-20T02:03:36.122Z,2.12
2023-02-20T02:06:07.341Z,1.70
2023-02-20T02:08:36.957Z,1.73
2023-02-20T02:11:06.917Z,2.03
2023-02-20T02:13:36.434Z,2.20
2023-02-20T02:16:19.775Z,1.92
2023-02-20T02:19:18.270Z,2.05
2023-02-20T02:21:48.830Z,2.20
2023-02-20T02:24:41.078Z,2.12
2023-02-20T02:27:17.620Z,2.03
2023-02-20T02:30:09.614Z,2.25
2023-02-20T02:33:12.148Z,2.12
2023-02-20T02:35:58.634Z,2.22
2023-02-20T02:38:32.743Z,2.15
2023-02-20T02:41:05.892Z,2.10
2023-02-20T02:44:11.554Z,2.20
2023-02-20T02:46:57.731Z,2.20
2023-02-20T02:49:26.950Z,1.80
2023-02-20T02:51:55.711Z,2.03
2023-02-20T02:54:27.871Z,1.37
2023-02-20T02:57:20.669Z,2.28
2023-02-20T02:59:49.590Z,1.90
2023-02-20T03:02:19.312Z,2.12
2023-02-20T03:04:50.426Z,2.08
2023-02-20T03:07:19.897Z,1.80
2023-02-20T03:09:58.137Z,2.33
2023-02-20T03:12:26.690Z,2.05
2023-02-20T03:15:18.626Z,1.95
2023-02-20T03:17:56.082Z,1.98
2023-02-20T03:20:23.899Z,1.47
2023-02-20T03:22:59.882Z,1.70
2023-02-20T03:25:34.504Z,2.00
2023-02-20T03:28:22.778Z,1.90
2023-02-20T03:31:04.997Z,2.12
2023-02-20T03:34:11.684Z,2.03
2023-02-20T03:37:01.002Z,1.98
2023-02-20T03:40:01.401Z,2.08
2023-02-20T03:42:50.490Z,1.58
2023-02-20T03:45:20.436Z,1.80
2023-02-20T03:47:52.839Z,1.57
2023-02-20T03:50:22.730Z,1.92
2023-02-20T03:52:51.132Z,1.90
2023-02-20T03:55:18.956Z,1.70
2023-02-20T03:57:50.591Z,2.15
2023-02-20T04:00:21.872Z,2.63
2023-02-20T04:02:54.197Z,2.35
2023-02-20T04:05:28.020Z,2.15
2023-02-20T04:08:31.489Z,2.10
2023-02-20T04:11:18.798Z,2.20
2023-02-20T04:13:47.708Z,1.90
2023-02-20T04:16:15.636Z,2.12
2023-02-20T04:18:43.994Z,2.25
2023-02-20T04:21:28.310Z,1.85
2023-02-20T04:24:18.472Z,2.47
2023-02-20T04:26:49.697Z,2.40
2023-02-20T04:29:17.929Z,2.28
2023-02-20T04:31:45.626Z,2.10
2023-02-20T04:34:13.889Z,2.10
2023-02-20T04:36:42.083Z,2.03
2023-02-20T04:39:09.661Z,2.13
2023-02-20T04:41:37.867Z,2.00
2023-02-20T04:44:24.252Z,1.92
2023-02-20T04:46:52.134Z,1.92
2023-02-20T04:49:20.893Z,2.00
2023-02-20T04:51:49.256Z,2.07
2023-02-20T04:54:17.116Z,1.73
2023-02-20T04:56:44.726Z,1.80
2023-02-20T04:59:12.400Z,1.50
2023-02-20T05:01:40.498Z,1.77
2023-02-20T05:04:08.021Z,1.47
2023-02-20T05:06:41.877Z,1.48
2023-02-20T05:09:10.976Z,1.45
2023-02-20T05:11:38.755Z,1.50
2023-02-20T05:14:06.388Z,1.87
2023-02-20T05:16:34.264Z,1.53
2023-02-20T05:19:01.846Z,1.67
2023-02-20T05:21:49.488Z,1.60
2023-02-20T05:24:17.524Z,1.35
2023-02-20T05:26:45.027Z,1.50
2023-02-20T05:29:15.705Z,1.43
2023-02-20T05:31:43.767Z,1.50
2023-02-20T05:34:11.399Z,1.52
2023-02-20T05:36:38.920Z,1.52
2023-02-20T05:39:06.904Z,1.60
2023-02-20T05:41:34.789Z,1.70
2023-02-20T05:44:02.388Z,1.30
2023-02-20T05:46:30.218Z,1.40
2023-02-20T05:48:57.922Z,1.50
2023-02-20T05:51:28.955Z,1.40
2023-02-20T05:53:56.952Z,1.87
2023-02-20T05:56:24.791Z,2.20
2023-02-20T05:58:52.502Z,1.70
2023-02-20T06:01:25.479Z,1.50
2023-02-20T06:03:53.534Z,1.37
2023-02-20T06:06:21.585Z,1.27
2023-02-20T06:08:49.428Z,1.60
2023-02-20T06:11:17.610Z,1.40
2023-02-20T06:13:46.408Z,1.67
2023-02-20T06:16:14.777Z,1.73
2023-02-20T06:18:43.659Z,1.50
2023-02-20T06:21:11.694Z,1.42
2023-02-20T06:23:39.952Z,1.23
2023-02-20T06:26:07.846Z,1.70
2023-02-20T06:28:35.412Z,1.40
2023-02-20T06:31:03.069Z,1.20
2023-02-20T06:33:31.316Z,1.40
2023-02-20T06:35:58.893Z,1.35
2023-02-20T06:38:31.227Z,1.40
2023-02-20T06:40:59.205Z,1.20
2023-02-20T06:43:27.032Z,1.40
2023-02-20T06:45:54.588Z,1.40
2023-02-20T06:48:22.626Z,1.30
2023-02-20T06:50:55.300Z,1.40
2023-02-20T06:53:23.203Z,1.20
2023-02-20T06:55:50.716Z,1.00
2023-02-20T06:58:18.221Z,1.42
2023-02-20T07:00:46.117Z,1.60
2023-02-20T07:03:13.654Z,1.40
2023-02-20T07:05:41.447Z,1.40
2023-02-20T07:08:09.875Z,1.13
2023-02-20T07:10:37.654Z,1.55
2023-02-20T07:13:06.281Z,1.40
2023-02-20T07:15:34.180Z,2.60
2023-02-20T07:18:01.781Z,2.83
2023-02-20T07:20:29.328Z,1.73
2023-02-20T07:22:57.363Z,1.37
2023-02-20T07:25:24.998Z,1.35
2023-02-20T07:27:52.458Z,1.40
2023-02-20T07:30:20.754Z,1.02
2023-02-20T07:32:48.291Z,1.50
2023-02-20T07:35:15.981Z,2.45
2023-02-20T07:37:44.219Z,2.22
2023-02-20T07:40:13.227Z,1.67
2023-02-20T07:42:40.786Z,1.17
2023-02-20T07:45:10.419Z,1.47
2023-02-20T07:47:37.971Z,1.40
2023-02-20T07:50:06.858Z,1.35
2023-02-20T07:52:34.662Z,1.52
2023-02-20T07:55:02.261Z,1.95
2023-02-20T07:57:32.333Z,1.77
2023-02-20T08:00:02.926Z,1.65
2023-02-20T08:02:42.113Z,2.17
2023-02-20T08:05:10.620Z,2.55
2023-02-20T08:07:38.616Z,1.90
2023-02-20T08:10:06.884Z,1.60
2023-02-20T08:12:34.782Z,1.55
2023-02-20T08:15:02.283Z,1.92
2023-02-20T08:17:45.305Z,1.60
2023-02-20T08:20:19.383Z,1.70
2023-02-20T08:22:48.934Z,2.00
2023-02-20T08:25:17.509Z,2.08
2023-02-20T08:27:47.127Z,2.72
2023-02-20T08:30:18.577Z,1.90
2023-02-20T08:32:46.767Z,2.15
2023-02-20T08:35:14.433Z,1.90
2023-02-20T08:37:42.050Z,1.75
2023-02-20T08:40:10.584Z,1.83
2023-02-20T08:42:38.117Z,1.75
2023-02-20T08:45:06.820Z,3.08
2023-02-20T08:47:34.786Z,2.23
2023-02-20T08:50:03.532Z,2.15
2023-02-20T08:52:31.294Z,4.60
2023-02-20T08:54:59.108Z,3.80
2023-02-20T08:57:27.091Z,3.87
2023-02-20T08:59:54.859Z,3.00
2023-02-20T09:02:29.211Z,3.15
2023-02-20T09:04:58.253Z,3.40
2023-02-20T09:07:27.003Z,2.83
2023-02-20T09:09:54.571Z,2.53
2023-02-20T09:12:22.307Z,2.40
2023-02-20T09:14:50.279Z,3.00
2023-02-20T09:17:17.951Z,2.15
2023-02-20T09:19:45.644Z,2.10
2023-02-20T09:22:13.649Z,2.37
2023-02-20T09:24:42.037Z,2.60
2023-02-20T09:27:10.078Z,2.42
2023-02-20T09:29:43.234Z,2.67
2023-02-20T09:32:12.346Z,3.37
2023-02-20T09:34:40.727Z,2.30
2023-02-20T09:37:08.742Z,2.43
2023-02-20T09:39:36.825Z,2.50
2023-02-20T09:42:23.948Z,2.97
2023-02-20T09:45:10.204Z,3.70
2023-02-20T09:47:40.860Z,3.12
2023-02-20T09:50:28.531Z,2.80
2023-02-20T09:53:03.582Z,2.80
2023-02-20T09:55:35.904Z,3.03
2023-02-20T09:58:05.560Z,4.60
2023-02-20T10:00:35.154Z,3.40
2023-02-20T10:03:17.787Z,2.60
2023-02-20T10:05:46.720Z,3.55
2023-02-20T10:08:20.503Z,3.30
2023-02-20T10:10:53.054Z,2.90
2023-02-20T10:13:48.853Z,3.10
2023-02-20T10:16:39.893Z,3.20
2023-02-20T10:19:45.899Z,2.97
2023-02-20T10:22:29.166Z,2.53
2023-02-20T10:25:03.386Z,2.80
2023-02-20T10:27:46.458Z,2.40
2023-02-20T10:30:19.156Z,2.70
2023-02-20T10:33:19.878Z,2.55
2023-02-20T10:35:52.678Z,2.70
2023-02-20T10:38:25.119Z,2.70
2023-02-20T10:41:27.070Z,3.10
2023-02-20T10:44:02.112Z,2.50
2023-02-20T10:46:49.075Z,3.03
2023-02-20T10:49:42.482Z,2.75
2023-02-20T10:52:29.497Z,3.00
2023-02-20T10:55:10.865Z,3.42
2023-02-20T10:58:11.385Z,3.57
2023-02-20T11:00:42.282Z,3.00
2023-02-20T11:03:18.286Z,3.30
2023-02-20T11:05:51.581Z,2.60
2023-02-20T11:08:21.731Z,3.65
2023-02-20T11:10:52.993Z,3.20
2023-02-20T11:13:24.019Z,3.20
2023-02-20T11:15:54.448Z,2.65
2023-02-20T11:18:30.916Z,2.05
2023-02-20T11:20:58.690Z,3.00
2023-02-20T11:23:34.517Z,2.70
2023-02-20T11:26:20.341Z,2.92
2023-02-20T11:29:13.278Z,3.10
2023-02-20T11:31:45.096Z,2.60
2023-02-20T11:34:24.998Z,2.83
2023-02-20T11:36:54.313Z,2.50
2023-02-20T11:39:31.162Z,3.12
2023-02-20T11:42:15.209Z,3.42
2023-02-20T11:44:43.900Z,3.05
2023-02-20T11:47:23.842Z,2.85
2023-02-20T11:50:34.868Z,2.70
2023-02-20T11:53:08.908Z,2.25
2023-02-20T11:55:36.849Z,2.80
2023-02-20T11:58:04.508Z,2.70
2023-02-20T12:00:49.824Z,2.78
2023-02-20T12:03:29.097Z,2.43
2023-02-20T12:05:57.873Z,2.80
2023-02-20T12:08:48.907Z,2.90
2023-02-20T12:11:19.608Z,2.60
2023-02-20T12:13:49.475Z,2.45
2023-02-20T12:16:28.759Z,2.50
2023-02-20T12:19:04.079Z,2.72
2023-02-20T12:21:37.857Z,2.30
2023-02-20T12:24:16.427Z,3.03
2023-02-20T12:26:54.307Z,2.53
2023-02-20T12:29:27.643Z,2.30
2023-02-20T12:32:16.759Z,2.72
2023-02-20T12:34:52.658Z,2.83
2023-02-20T12:37:26.168Z,2.53
2023-02-20T12:40:23.575Z,2.83
2023-02-20T12:43:00.066Z,3.17
2023-02-20T12:45:36.971Z,3.30
2023-02-20T12:48:23.197Z,3.37
2023-02-20T12:51:06.298Z,3.75
2023-02-20T12:53:51.604Z,2.55
2023-02-20T12:56:41.743Z,2.23
2023-02-20T12:59:36.772Z,2.12
2023-02-20T13:02:16.117Z,2.45
2023-02-20T13:04:51.457Z,2.10
2023-02-20T13:07:28.617Z,2.62
2023-02-20T13:10:02.397Z,2.53
2023-02-20T13:12:30.343Z,2.20
2023-02-20T13:15:36.390Z,2.15
2023-02-20T13:18:21.222Z,2.72
2023-02-20T13:21:04.190Z,2.42
2023-02-20T13:23:37.529Z,2.20
2023-02-20T13:26:34.391Z,2.90
2023-02-20T13:29:20.725Z,2.50
2023-02-20T13:31:52.813Z,2.50
2023-02-20T13:34:20.602Z,2.28
2023-02-20T13:36:49.654Z,2.07
2023-02-20T13:39:26.128Z,2.30
2023-02-20T13:41:54.370Z,1.98
2023-02-20T13:44:28.342Z,1.98
2023-02-20T13:46:57.105Z,2.25
2023-02-20T13:49:46.046Z,2.13
2023-02-20T13:52:37.164Z,1.80
2023-02-20T13:55:10.901Z,2.40
2023-02-20T13:57:44.926Z,3.62
2023-02-20T14:00:42.545Z,2.30
2023-02-20T14:03:31.576Z,1.83
2023-02-20T14:06:18.904Z,2.17
2023-02-20T14:08:48.660Z,2.15
2023-02-20T14:11:33.175Z,1.83
2023-02-20T14:14:24.861Z,2.15
2023-02-20T14:16:53.609Z,1.80
2023-02-20T14:19:24.639Z,1.83
2023-02-20T14:21:52.395Z,1.92
2023-02-20T14:24:21.708Z,1.50
2023-02-20T14:26:51.777Z,2.33
2023-02-20T14:29:27.459Z,2.10
2023-02-20T14:31:57.752Z,1.73
2023-02-20T14:34:47.974Z,2.20
2023-02-20T14:37:15.812Z,2.08
2023-02-20T14:40:10.487Z,1.80
2023-02-20T14:42:46.147Z,4.27
2023-02-20T14:45:21.519Z,3.22
2023-02-20T14:47:54.405Z,7.50
2023-02-20T14:50:27.182Z,13.80
2023-02-20T14:53:14.500Z,8.25
2023-02-20T14:55:42.652Z,6.37
2023-02-20T14:58:15.434Z,4.85
2023-02-20T15:00:44.124Z,3.28
2023-02-20T15:03:30.638Z,6.40
2023-02-20T15:06:05.925Z,2.70
2023-02-20T15:08:36.004Z,2.53
2023-02-20T15:11:10.115Z,2.65
2023-02-20T15:13:43.587Z,2.58
2023-02-20T15:16:11.116Z,2.72
2023-02-20T15:18:43.610Z,3.10
2023-02-20T15:21:13.311Z,2.20
2023-02-20T15:23:43.727Z,2.72
2023-02-20T15:26:44.870Z,3.20
2023-02-20T15:29:13.238Z,2.72
2023-02-20T15:31:41.222Z,2.67
2023-02-20T15:34:27.261Z,2.70
2023-02-20T15:36:55.204Z,2.80
2023-02-20T15:39:22.919Z,2.70
2023-02-20T15:41:51.316Z,2.40
2023-02-20T15:44:19.940Z,2.45
2023-02-20T15:46:47.587Z,2.57
2023-02-20T15:49:20.416Z,2.60
2023-02-20T15:51:52.268Z,2.58
2023-02-20T15:54:22.005Z,3.45
2023-02-20T15:56:51.735Z,3.25
2023-02-20T15:59:19.719Z,3.60
2023-02-20T16:01:47.496Z,3.28
2023-02-20T16:04:16.684Z,3.25
2023-02-20T16:06:45.389Z,3.10
2023-02-20T16:09:13.070Z,3.55
2023-02-20T16:11:45.698Z,3.20
2023-02-20T16:14:14.943Z,3.33
2023-02-20T16:16:45.113Z,3.17
2023-02-20T16:19:42.121Z,2.40
2023-02-20T16:22:11.778Z,2.12
2023-02-20T16:24:40.205Z,2.43
2023-02-20T16:27:25.779Z,2.50
2023-02-20T16:29:56.101Z,2.75
2023-02-20T16:32:28.653Z,2.80
2023-02-20T16:34:58.666Z,2.90
2023-02-20T16:37:28.077Z,2.40
2023-02-20T16:39:57.717Z,8.60
2023-02-20T16:42:33.099Z,5.60
2023-02-20T16:45:13.372Z,2.85
2023-02-20T16:47:41.424Z,2.40
2023-02-20T16:50:16.026Z,1.97
2023-02-20T16:52:43.718Z,2.28
2023-02-20T16:55:32.703Z,2.25
2023-02-20T16:58:00.800Z,2.45
2023-02-20T17:00:35.025Z,1.98
2023-02-20T17:03:04.417Z,2.20
2023-02-20T17:05:33.564Z,2.20
2023-02-20T17:08:02.083Z,1.87
2023-02-20T17:10:30.310Z,1.70
2023-02-20T17:12:59.300Z,2.22
2023-02-20T17:15:27.377Z,2.77
2023-02-20T17:17:55.481Z,2.90
2023-02-20T17:20:25.540Z,3.33
2023-02-20T17:23:03.946Z,2.92
2023-02-20T17:25:34.537Z,2.72
2023-02-20T17:28:03.641Z,2.43
2023-02-20T17:30:32.643Z,2.50
2023-02-20T17:33:01.022Z,3.67
2023-02-20T17:35:29.061Z,3.05
2023-02-20T17:37:56.940Z,3.10
2023-02-20T17:40:26.196Z,3.00
2023-02-20T17:42:53.858Z,3.22
2023-02-20T17:45:21.766Z,2.85
2023-02-20T17:47:51.750Z,3.03
2023-02-20T17:50:20.042Z,3.40
2023-02-20T17:52:49.458Z,3.30
2023-02-20T17:55:19.431Z,5.20
2023-02-20T17:57:47.348Z,4.37
2023-02-20T18:00:23.034Z,4.90
2023-02-20T18:02:51.241Z,4.28
2023-02-20T18:05:19.095Z,4.20
2023-02-20T18:07:46.999Z,4.25
2023-02-20T18:10:15.149Z,3.60
2023-02-20T18:12:43.397Z,4.07
2023-02-20T18:15:12.206Z,3.62
2023-02-20T18:17:40.308Z,3.60
2023-02-20T18:20:12.419Z,3.60
2023-02-20T18:22:41.143Z,3.53
2023-02-20T18:25:10.301Z,3.90
2023-02-20T18:27:38.337Z,5.37
2023-02-20T18:30:07.405Z,5.33
2023-02-20T18:32:36.248Z,4.90
2023-02-20T18:35:04.383Z,6.25
2023-02-20T18:37:36.771Z,5.53
2023-02-20T18:40:05.981Z,4.93
2023-02-20T18:42:34.814Z,4.67
2023-02-20T18:45:02.992Z,4.45
2023-02-20T18:47:31.003Z,5.80
2023-02-20T18:50:00.683Z,6.57
2023-02-20T18:52:28.534Z,6.50
2023-02-20T18:54:56.411Z,6.03
2023-02-20T18:57:24.527Z,6.68
2023-02-20T18:59:52.570Z,6.32
2023-02-20T19:02:20.505Z,6.57
2023-02-20T19:04:49.852Z,6.40
2023-02-20T19:07:17.629Z,5.33
2023-02-20T19:09:45.555Z,5.85
2023-02-20T19:12:13.586Z,5.60
2023-02-20T19:14:41.639Z,5.70
2023-02-20T19:17:10.603Z,5.18
2023-02-20T19:19:41.319Z,6.10
2023-02-20T19:22:09.149Z,9.75
2023-02-20T19:24:39.873Z,11.48
2023-02-20T19:27:08.672Z,11.48
2023-02-20T19:29:39.410Z,8.10
2023-02-20T19:32:10.072Z,6.97
2023-02-20T19:34:38.015Z,7.07
2023-02-20T19:37:06.924Z,8.35
2023-02-20T19:39:35.802Z,6.80
2023-02-20T19:42:04.404Z,6.90
2023-02-20T19:44:31.943Z,5.73
2023-02-20T19:47:00.036Z,5.40
2023-02-20T19:49:27.967Z,5.78
2023-02-20T19:51:56.054Z,5.57
2023-02-20T19:54:27.787Z,5.85
2023-02-20T19:57:01.196Z,6.07
2023-02-20T19:59:29.870Z,5.55
2023-02-20T20:01:59.211Z,4.70
2023-02-20T20:04:30.598Z,5.12
2023-02-20T20:06:59.217Z,5.45
2023-02-20T20:09:36.208Z,5.47
2023-02-20T20:12:29.949Z,5.40
2023-02-20T20:14:58.386Z,5.55
2023-02-20T20:17:26.258Z,5.32
2023-02-20T20:19:59.280Z,5.95
2023-02-20T20:22:29.165Z,6.00
2023-02-20T20:24:57.603Z,6.00
2023-02-20T20:27:25.566Z,5.32
2023-02-20T20:29:55.027Z,5.20
2023-02-20T20:32:22.870Z,4.50
2023-02-20T20:34:55.748Z,5.23
2023-02-20T20:37:27.798Z,4.72
2023-02-20T20:40:00.421Z,5.22
2023-02-20T20:42:28.896Z,5.43
2023-02-20T20:44:57.935Z,6.07
2023-02-20T20:47:30.332Z,5.20
2023-02-20T20:49:59.922Z,5.70
2023-02-20T20:52:27.953Z,5.10
2023-02-20T20:54:57.473Z,5.12
2023-02-20T20:57:29.109Z,5.80
2023-02-20T21:00:00.475Z,4.93
2023-02-20T21:02:31.790Z,5.93
2023-02-20T21:05:09.675Z,5.05
2023-02-20T21:07:39.634Z,5.78
2023-02-20T21:10:08.595Z,5.53
2023-02-20T21:12:39.622Z,4.80
2023-02-20T21:15:10.277Z,5.07
2023-02-20T21:17:39.432Z,5.43
2023-02-20T21:20:09.274Z,6.00
2023-02-20T21:22:37.860Z,5.75
2023-02-20T21:25:06.036Z,6.03
2023-02-20T21:27:37.373Z,5.75
2023-02-20T21:30:06.131Z,6.35
2023-02-20T21:32:37.578Z,5.70
2023-02-20T21:35:05.357Z,6.50
2023-02-20T21:37:33.239Z,6.87
2023-02-20T21:40:02.167Z,6.70
2023-02-20T21:42:48.251Z,7.05
2023-02-20T21:45:16.126Z,7.20
2023-02-20T21:47:43.983Z,6.97
2023-02-20T21:50:16.406Z,6.47
2023-02-20T21:52:47.907Z,7.80
2023-02-20T21:55:17.237Z,7.15
2023-02-20T21:57:45.247Z,6.70
2023-02-20T22:00:14.362Z,8.43
2023-02-20T22:02:42.640Z,6.93
2023-02-20T22:05:10.917Z,7.75
2023-02-20T22:07:57.255Z,7.57
2023-02-20T22:10:44.669Z,6.97
2023-02-20T22:13:31.009Z,7.15
2023-02-20T22:16:17.482Z,6.87
2023-02-20T22:19:03.874Z,6.65
2023-02-20T22:21:50.436Z,6.70
2023-02-20T22:24:39.027Z,7.18
2023-02-20T22:27:27.686Z,7.75
2023-02-20T22:30:14.753Z,6.77
2023-02-20T22:33:01.680Z,7.43
2023-02-20T22:35:48.118Z,7.47
2023-02-20T22:38:34.794Z,7.10
2023-02-20T22:41:20.755Z,7.28
2023-02-20T22:44:07.046Z,6.57
2023-02-20T22:46:52.878Z,7.03
2023-02-20T22:49:39.200Z,7.10
2023-02-20T22:52:25.197Z,6.25
2023-02-20T22:55:11.621Z,6.68
2023-02-20T22:57:57.402Z,6.23
2023-02-20T23:00:43.849Z,6.40
2023-02-20T23:03:30.293Z,6.55
2023-02-20T23:06:18.753Z,6.12
2023-02-20T23:09:08.682Z,6.35
2023-02-20T23:11:56.680Z,6.23
2023-02-20T23:14:43.417Z,6.30
2023-02-20T23:17:36.368Z,6.60
2023-02-20T23:20:30.641Z,5.78
2023-02-20T23:23:17.149Z,6.72
2023-02-20T23:26:02.969Z,6.23
2023-02-20T23:28:49.921Z,5.68
2023-02-20T23:31:37.160Z,5.95
2023-02-20T23:34:23.872Z,6.62
2023-02-20T23:37:11.464Z,5.25
2023-02-20T23:39:57.748Z,6.07
2023-02-20T23:42:43.598Z,5.03
2023-02-20T23:45:30.206Z,5.03
2023-02-20T23:48:16.758Z,4.70
2023-02-20T23:51:03.209Z,5.37
2023-02-20T23:53:53.383Z,4.23
2023-02-20T23:56:39.895Z,4.60
2023-02-20T23:59:26.377Z,3.50
